Aviation Digital Data Service (ADDS)

Output produced by METARs form (1820 UTC 21 September 2019)
found at http://aviationweather.gov/metar/data/
 
KHDC 211815Z AUTO 12018G21KT 10SM SCT027 BKN034 OVC055 28/22 A3015 RMK AO2 PWINO
KHDC 211755Z AUTO 13007KT 10SM BKN034 BKN050 31/22 A3014 RMK AO2 PWINO
KHDC 211735Z AUTO 12007KT 10SM BKN032 BKN037 BKN048 30/22 A3015 RMK AO2 PWINO
KHDC 211744Z 2118/2218 11010KT P6SM BKN100 
     FM211900 11008KT P6SM SCT040 BKN070 
     FM212100 13007KT P6SM FEW030 SCT080 
     FM220500 00000KT P6SM FEW025 FEW200 
     FM220900 00000KT P6SM FEW045 FEW250 
     FM221000 00000KT P6SM SKC